createdAt,value
2023-03-15T00:01:12.311Z,100.00
2023-03-15T00:06:14.379Z,100.00
2023-03-15T00:11:16.334Z,100.00
2023-03-15T00:16:17.909Z,100.00
2023-03-15T00:21:19.532Z,100.00
2023-03-15T00:26:21.331Z,100.00
2023-03-15T00:31:23.890Z,100.00
2023-03-15T00:36:25.877Z,100.00
2023-03-15T00:41:27.265Z,100.00
2023-03-15T00:46:28.712Z,100.00
2023-03-15T00:51:30.097Z,100.00
2023-03-15T00:56:31.509Z,100.00
2023-03-15T01:01:32.980Z,100.00
2023-03-15T01:06:34.364Z,100.00
2023-03-15T01:11:35.767Z,100.00
2023-03-15T01:16:37.405Z,100.00
2023-03-15T01:21:38.810Z,100.00
2023-03-15T01:26:40.226Z,100.00
2023-03-15T01:31:41.626Z,100.00
2023-03-15T01:36:43.094Z,100.00
2023-03-15T01:41:44.444Z,100.00
2023-03-15T01:46:46.457Z,100.00
2023-03-15T01:51:56.719Z,100.00
2023-03-15T01:57:06.660Z,100.00
2023-03-15T02:02:08.347Z,100.00
2023-03-15T02:07:10.229Z,100.00
2023-03-15T02:12:11.603Z,100.00
2023-03-15T02:17:13.044Z,100.00
2023-03-15T02:22:17.177Z,100.00
2023-03-15T02:27:31.976Z,100.00
2023-03-15T02:32:33.953Z,100.00
2023-03-15T02:37:35.373Z,100.00
2023-03-15T02:42:36.826Z,100.00
2023-03-15T02:47:38.593Z,100.00
2023-03-15T02:52:39.994Z,100.00
2023-03-15T02:57:41.350Z,100.00
2023-03-15T03:02:43.977Z,100.00
2023-03-15T03:07:45.746Z,100.00
2023-03-15T03:12:47.143Z,100.00
2023-03-15T03:17:48.502Z,100.00
2023-03-15T03:22:49.906Z,100.00
2023-03-15T03:27:51.221Z,100.00
2023-03-15T03:32:52.600Z,100.00
2023-03-15T03:37:54.065Z,100.00
2023-03-15T03:42:55.438Z,100.00
2023-03-15T03:47:56.950Z,100.00
2023-03-15T03:52:58.360Z,100.00
2023-03-15T03:58:00.085Z,100.00
2023-03-15T04:03:01.461Z,100.00
2023-03-15T04:08:02.876Z,100.00
2023-03-15T04:13:04.227Z,100.00
2023-03-15T04:18:05.572Z,100.00
2023-03-15T04:23:06.945Z,100.00
2023-03-15T04:28:09.038Z,100.00
2023-03-15T04:33:10.795Z,100.00
2023-03-15T04:38:12.148Z,100.00
2023-03-15T04:43:13.483Z,100.00
2023-03-15T04:48:14.864Z,100.00
2023-03-15T04:53:16.201Z,100.00
2023-03-15T04:58:18.151Z,100.00
2023-03-15T05:03:19.589Z,100.00
2023-03-15T05:08:21.001Z,100.00
2023-03-15T05:13:22.418Z,100.00
2023-03-15T05:18:24.428Z,100.00
2023-03-15T05:23:25.853Z,100.00
2023-03-15T05:28:27.214Z,100.00
2023-03-15T05:33:28.590Z,100.00
2023-03-15T05:38:30.095Z,100.00
2023-03-15T05:43:31.775Z,100.00
2023-03-15T05:48:33.086Z,100.00
2023-03-15T05:53:34.441Z,100.00
2023-03-15T05:58:35.849Z,100.00
2023-03-15T06:03:37.228Z,100.00
2023-03-15T06:08:38.594Z,100.00
2023-03-15T06:13:40.023Z,100.00
2023-03-15T06:18:41.464Z,100.00
2023-03-15T06:23:43.030Z,100.00
2023-03-15T06:28:44.657Z,100.00
2023-03-15T06:33:46.038Z,100.00
2023-03-15T06:38:47.449Z,100.00
2023-03-15T06:43:48.886Z,100.00
2023-03-15T06:48:50.389Z,100.00
2023-03-15T06:53:51.783Z,100.00
2023-03-15T06:58:53.161Z,100.00
2023-03-15T07:03:54.558Z,100.00
2023-03-15T07:08:55.934Z,100.00
2023-03-15T07:13:57.375Z,100.00
2023-03-15T07:18:58.722Z,100.00
2023-03-15T07:24:00.259Z,100.00
2023-03-15T07:29:01.654Z,100.00
2023-03-15T07:34:03.173Z,100.00
2023-03-15T07:39:04.741Z,100.00
2023-03-15T07:44:06.489Z,100.00
2023-03-15T07:49:07.818Z,100.00
2023-03-15T07:54:09.639Z,100.00
2023-03-15T07:59:10.997Z,100.00
2023-03-15T08:04:12.350Z,100.00
2023-03-15T08:09:13.771Z,100.00
2023-03-15T08:14:15.189Z,100.00
2023-03-15T08:19:16.539Z,100.00
2023-03-15T08:24:17.991Z,100.00
2023-03-15T08:29:19.368Z,100.00
2023-03-15T08:34:20.767Z,100.00
2023-03-15T08:39:22.234Z,100.00
2023-03-15T08:44:23.602Z,100.00
2023-03-15T08:49:25.031Z,100.00
2023-03-15T08:54:26.557Z,100.00
2023-03-15T08:59:32.300Z,100.00
2023-03-15T09:04:34.095Z,100.00
2023-03-15T09:09:35.440Z,100.00
2023-03-15T09:14:37.005Z,100.00
2023-03-15T09:19:38.701Z,100.00
2023-03-15T09:24:40.138Z,100.00
2023-03-15T09:29:41.528Z,100.00
2023-03-15T09:34:42.920Z,100.00
2023-03-15T09:39:44.331Z,100.00
2023-03-15T09:44:47.385Z,100.00
2023-03-15T09:49:51.401Z,100.00
2023-03-15T09:55:11.276Z,100.00
2023-03-15T10:00:19.880Z,99.21
2023-03-15T10:05:24.643Z,96.45
2023-03-15T10:10:33.117Z,92.75
2023-03-15T10:15:48.277Z,98.33
2023-03-15T10:20:53.268Z,96.58
2023-03-15T10:25:55.066Z,99.80
2023-03-15T10:31:10.103Z,100.00
2023-03-15T10:36:14.472Z,100.00
2023-03-15T10:41:38.915Z,100.00
2023-03-15T10:46:40.663Z,100.00
2023-03-15T10:51:46.041Z,100.00
2023-03-15T10:56:50.421Z,100.00
2023-03-15T11:01:53.270Z,100.00
2023-03-15T11:06:57.867Z,98.89
2023-03-15T11:12:01.067Z,96.64
2023-03-15T11:17:03.877Z,100.00
2023-03-15T11:22:05.422Z,93.92
2023-03-15T11:27:11.692Z,99.36
2023-03-15T11:32:20.711Z,98.13
2023-03-15T11:37:24.877Z,96.02
2023-03-15T11:42:32.743Z,96.40
2023-03-15T11:47:45.057Z,100.00
2023-03-15T11:52:52.611Z,92.92
2023-03-15T11:57:54.816Z,91.65
2023-03-15T12:03:00.473Z,83.75
2023-03-15T12:08:22.229Z,84.84
2023-03-15T12:13:25.155Z,89.42
2023-03-15T12:18:29.796Z,83.29
2023-03-15T12:23:35.686Z,81.46
2023-03-15T12:28:37.180Z,82.86
2023-03-15T12:33:50.012Z,83.36
2023-03-15T12:39:01.959Z,81.61
2023-03-15T12:44:19.948Z,78.36
2023-03-15T12:49:23.312Z,79.02
2023-03-15T12:54:29.902Z,77.78
2023-03-15T12:59:51.758Z,81.21
2023-03-15T13:05:00.716Z,85.76
2023-03-15T13:10:02.098Z,83.96
2023-03-15T13:15:06.995Z,88.21
2023-03-15T13:20:16.083Z,85.44
2023-03-15T13:25:22.817Z,85.11
2023-03-15T13:30:30.014Z,86.20
2023-03-15T13:35:31.474Z,84.82
2023-03-15T13:40:32.914Z,82.05
2023-03-15T13:45:37.554Z,84.86
2023-03-15T13:50:39.086Z,81.07
2023-03-15T13:55:40.502Z,82.76
2023-03-15T14:00:41.881Z,76.58
2023-03-15T14:05:48.171Z,76.08
2023-03-15T14:11:03.661Z,71.97
2023-03-15T14:16:06.748Z,69.88
2023-03-15T14:21:14.325Z,67.78
2023-03-15T14:26:28.831Z,68.67
2023-03-15T14:31:32.121Z,71.82
2023-03-15T14:36:40.681Z,69.05
2023-03-15T14:41:42.030Z,68.49
2023-03-15T14:46:43.420Z,71.60
2023-03-15T14:51:53.681Z,68.82
2023-03-15T14:56:55.154Z,73.04
2023-03-15T15:01:57.679Z,70.43
2023-03-15T15:06:59.595Z,74.62
2023-03-15T15:12:01.002Z,71.15
2023-03-15T15:17:02.456Z,79.04
2023-03-15T15:22:03.966Z,69.79
2023-03-15T15:27:05.343Z,74.28
2023-03-15T15:32:07.533Z,68.88
2023-03-15T15:37:11.859Z,71.54
2023-03-15T15:42:13.194Z,68.05
2023-03-15T15:47:14.692Z,73.26
2023-03-15T15:52:16.057Z,76.05
2023-03-15T15:57:19.445Z,71.65
2023-03-15T16:02:21.215Z,70.32
2023-03-15T16:07:23.849Z,79.10
2023-03-15T16:12:25.628Z,80.67
2023-03-15T16:17:27.073Z,83.98
2023-03-15T16:22:28.463Z,88.91
2023-03-15T16:27:29.913Z,93.13
2023-03-15T16:32:43.431Z,92.30
2023-03-15T16:37:46.456Z,92.42
2023-03-15T16:42:48.308Z,92.75
2023-03-15T16:47:49.866Z,93.03
2023-03-15T16:52:53.833Z,92.33
2023-03-15T16:57:55.830Z,92.45
2023-03-15T17:02:57.277Z,95.26
2023-03-15T17:07:59.195Z,94.22
2023-03-15T17:13:01.194Z,92.91
2023-03-15T17:18:02.655Z,93.37
2023-03-15T17:23:04.883Z,91.91
2023-03-15T17:28:06.527Z,91.66
2023-03-15T17:33:08.080Z,93.48
2023-03-15T17:38:18.024Z,93.89
2023-03-15T17:43:19.639Z,92.64
2023-03-15T17:48:21.102Z,94.96
2023-03-15T17:53:22.459Z,93.80
2023-03-15T17:58:24.725Z,94.24
2023-03-15T18:03:26.669Z,94.18
2023-03-15T18:08:28.013Z,94.09
2023-03-15T18:13:29.417Z,95.75
2023-03-15T18:18:30.817Z,96.21
2023-03-15T18:23:32.331Z,97.07
2023-03-15T18:28:33.689Z,99.03
2023-03-15T18:33:35.071Z,98.68
2023-03-15T18:38:36.608Z,98.19
2023-03-15T18:43:39.034Z,99.25
2023-03-15T18:48:41.251Z,95.61
2023-03-15T18:53:43.825Z,97.45
2023-03-15T18:58:46.363Z,97.81
2023-03-15T19:03:48.030Z,98.74
2023-03-15T19:08:49.391Z,98.33
2023-03-15T19:13:50.961Z,98.01
2023-03-15T19:18:52.639Z,96.81
2023-03-15T19:23:55.159Z,98.24
2023-03-15T19:28:57.359Z,97.72
2023-03-15T19:33:58.820Z,96.84
2023-03-15T19:39:00.178Z,97.33
2023-03-15T19:44:02.130Z,96.16
2023-03-15T19:49:03.554Z,99.70
2023-03-15T19:54:05.217Z,97.29
2023-03-15T19:59:06.543Z,97.32
2023-03-15T20:04:08.164Z,96.72
2023-03-15T20:09:09.672Z,97.72
2023-03-15T20:14:11.099Z,97.26
2023-03-15T20:19:12.853Z,97.17
2023-03-15T20:24:14.399Z,96.69
2023-03-15T20:29:15.795Z,98.09
2023-03-15T20:34:17.230Z,96.23
2023-03-15T20:39:18.653Z,97.63
2023-03-15T20:44:20.069Z,98.08
2023-03-15T20:49:21.435Z,99.09
2023-03-15T20:54:22.822Z,98.88
2023-03-15T20:59:24.198Z,99.26
2023-03-15T21:04:25.590Z,99.36
2023-03-15T21:09:26.967Z,98.85
2023-03-15T21:14:28.353Z,99.24
2023-03-15T21:19:29.695Z,99.43
2023-03-15T21:24:31.180Z,98.86
2023-03-15T21:29:36.032Z,99.36
2023-03-15T21:34:37.509Z,100.00
2023-03-15T21:39:38.884Z,100.00
2023-03-15T21:44:40.278Z,100.00
2023-03-15T21:49:41.658Z,100.00
2023-03-15T21:54:43.227Z,100.00
2023-03-15T21:59:44.728Z,100.00
2023-03-15T22:04:46.176Z,100.00
2023-03-15T22:09:47.643Z,100.00
2023-03-15T22:14:56.850Z,100.00
2023-03-15T22:20:06.514Z,100.00
2023-03-15T22:25:08.022Z,100.00
2023-03-15T22:30:10.809Z,100.00
2023-03-15T22:35:13.526Z,100.00
2023-03-15T22:40:15.366Z,100.00
2023-03-15T22:45:17.013Z,100.00
2023-03-15T22:50:18.418Z,100.00
2023-03-15T22:55:19.758Z,100.00
2023-03-15T23:00:22.014Z,100.00
2023-03-15T23:05:23.364Z,100.00
2023-03-15T23:10:25.175Z,100.00
2023-03-15T23:15:26.754Z,100.00
2023-03-15T23:20:28.963Z,100.00
2023-03-15T23:25:30.594Z,100.00
2023-03-15T23:30:33.315Z,100.00
2023-03-15T23:35:36.646Z,100.00
2023-03-15T23:40:38.074Z,100.00
2023-03-15T23:45:39.448Z,100.00
2023-03-15T23:50:40.813Z,100.00
2023-03-15T23:55:42.260Z,100.00
